F/V L Ocarina — FGRL — position and weather

sailwx.info

Track history (hours):
 
Tides and Currents Weather Stations Pressure Air Temp Water Temp Dewpoint Dewpoint Depression Visibility Wind Speed Wind Dir Waves Ship Positions

F/V L Ocarina

Last reported at 2017-Nov-18 10:22 UTC. Time now 2017-Nov-18 15:42 UTC.
Position N 47°48' W 004°17'.

Length 16 m.

Type: Fishing. MMSI: 228126000.

Date/timePositionNaut miles runAvg speedWind from/ knotsBaromVisibWave heightAir tempDewpointWater temp
2017-Nov-18 10:22N 47°48' W 004°17'1 0.0
2017-Nov-17 13:28N 47°47' W 004°17'5 8.6
2017-Nov-17 12:56N 47°44' W 004°22'16 5.6
2017-Nov-17 10:08N 47°32' W 004°38'2 3.1
2017-Nov-17 09:35N 47°31' W 004°40'0 3.2
2017-Nov-17 09:26N 47°31' W 004°41'5 2.8
2017-Nov-17 07:33N 47°32' W 004°48'0 3.4
2017-Nov-17 07:29N 47°32' W 004°48'8 2.1
2017-Nov-17 03:29N 47°37' W 004°59'2 0.4
2017-Nov-16 23:12N 47°36' W 005°01'1 2.8
2017-Nov-16 22:58N 47°36' W 005°01'2 1.5
2017-Nov-16 21:52N 47°36' W 005°04'3 1.8
2017-Nov-16 20:11N 47°34' W 005°06'2 3.5
2017-Nov-16 19:43N 47°35' W 005°08'1 3.7
2017-Nov-16 19:20N 47°37' W 005°08'6 3.5
2017-Nov-16 17:42N 47°42' W 005°10'1 2.8
2017-Nov-16 17:12N 47°42' W 005°08'2 2.9
2017-Nov-16 16:35N 47°41' W 005°05'1 3.0
2017-Nov-16 16:16N 47°40' W 005°04'1 3.1
2017-Nov-16 16:00N 47°40' W 005°03'2 3.1
2017-Nov-16 15:30N 47°40' W 005°01'2 3.1
2017-Nov-16 14:53N 47°40' W 004°58'2 2.9
2017-Nov-16 14:22N 47°39' W 004°56'1 2.9
2017-Nov-16 13:53N 47°39' W 004°54'3 1.8
2017-Nov-16 12:21N 47°37' W 004°51'1 3.4
2017-Nov-16 12:00N 47°37' W 004°53'2 3.2
2017-Nov-16 11:30N 47°38' W 004°55'2 3.1
2017-Nov-16 10:53N 47°39' W 004°57'1 2.4
2017-Nov-16 10:18N 47°40' W 004°59'1 2.3
2017-Nov-16 09:51N 47°39' W 005°00'1 3.2
2017-Nov-16 09:28N 47°40' W 004°58'2 2.9
2017-Nov-16 08:51N 47°39' W 004°56'2 3.3
2017-Nov-16 08:13N 47°39' W 004°53'2 3.2
2017-Nov-16 07:44N 47°38' W 004°51'8 2.1
2017-Nov-16 03:56N 47°30' W 004°54'2 3.1
2017-Nov-16 03:23N 47°29' W 004°52'2 3.2
2017-Nov-16 02:55N 47°29' W 004°49'1 3.3
2017-Nov-16 02:28N 47°30' W 004°47'2 3.3
2017-Nov-16 02:00N 47°31' W 004°45'2 2.7
2017-Nov-16 01:23N 47°32' W 004°46'7 2.2
2017-Nov-15 22:10N 47°25' W 004°47'1 3.5
2017-Nov-15 22:00N 47°25' W 004°47'5 3.6
2017-Nov-15 20:41N 47°21' W 004°43'1 3.7
2017-Nov-15 20:25N 47°20' W 004°42'8 3.3
2017-Nov-15 18:07N 47°15' W 004°35'1 3.5
2017-Nov-15 17:53N 47°15' W 004°34'5 3.3
2017-Nov-15 16:22N 47°20' W 004°33'2 0.7
2017-Nov-15 13:06N 47°21' W 004°29'5 2.2
2017-Nov-15 10:44N 47°16' W 004°34'1 3.0
2017-Nov-15 10:30N 47°16' W 004°33'18 3.8
2017-Nov-15 05:38N 47°34' W 004°23'4 8.2
2017-Nov-15 05:08N 47°37' W 004°21'2 8.2
2017-Nov-15 04:56N 47°39' W 004°21'4 8.1
2017-Nov-15 04:30N 47°43' W 004°19'4 8.0
2017-Nov-15 04:00N 47°46' W 004°18'2 0.9
2017-Nov-15 02:19N 47°48' W 004°17'  
2017-Nov-10 15:50N 47°46' W 004°18'3 8.5
2017-Nov-10 15:30N 47°44' W 004°20'15 3.4
2017-Nov-10 11:00N 47°40' W 004°42'7 3.7
2017-Nov-10 09:09N 47°42' W 004°52'1 4.0
2017-Nov-10 09:00N 47°43' W 004°52'3 1.8
2017-Nov-10 07:29N 47°41' W 004°49'3 3.6
2017-Nov-10 06:38N 47°41' W 004°44'1 7.0
2017-Nov-10 06:29N 47°42' W 004°43'3 6.9
2017-Nov-10 06:01N 47°43' W 004°38'4 7.0
2017-Nov-10 05:29N 47°44' W 004°33'4 7.1
2017-Nov-10 04:58N 47°44' W 004°28'3 7.1
2017-Nov-10 04:31N 47°45' W 004°23'3 6.7
2017-Nov-10 03:59N 47°47' W 004°18'0 0.0
2017-Nov-09 14:03N 47°46' W 004°19'1 8.5
2017-Nov-09 13:56N 47°46' W 004°20'5 9.2
2017-Nov-09 13:26N 47°45' W 004°27'3 7.4
2017-Nov-09 12:58N 47°43' W 004°31'12 2.9
2017-Nov-09 08:58N 47°40' W 004°48'4 2.0
2017-Nov-09 07:04N 47°43' W 004°52'1 3.7
2017-Nov-09 06:56N 47°43' W 004°53'2 3.0
2017-Nov-09 06:26N 47°43' W 004°55'1 3.0
2017-Nov-09 06:00N 47°44' W 004°57'1 1.6
2017-Nov-09 05:20N 47°43' W 004°58'1 3.0
2017-Nov-09 05:00N 47°43' W 004°56'1 2.7
2017-Nov-09 04:29N 47°44' W 004°54'2 3.2
2017-Nov-09 03:58N 47°44' W 004°57'1 3.2
2017-Nov-09 03:30N 47°44' W 004°59'2 3.1
2017-Nov-09 03:00N 47°45' W 005°01'2 3.3
2017-Nov-09 02:30N 47°45' W 005°04'2 3.2
2017-Nov-09 02:00N 47°46' W 005°06'6 2.0
2017-Nov-08 22:58N 47°40' W 005°04'8 1.3
2017-Nov-08 16:53N 47°42' W 004°54'2 3.2
2017-Nov-08 16:19N 47°42' W 004°51'2 3.1
2017-Nov-08 15:50N 47°41' W 004°49'1 0.7
2017-Nov-08 14:58N 47°42' W 004°50'2 3.1
2017-Nov-08 14:21N 47°43' W 004°52'1 2.2
2017-Nov-08 13:55N 47°43' W 004°54'2 0.4
2017-Nov-08 10:28N 47°41' W 004°55'  
Track history (hours):
 
Tides and Currents Weather Stations Pressure Air Temp Water Temp Dewpoint Dewpoint Depression Visibility Wind Speed Wind Dir Waves Ship Positions

F/V L Ocarina

Last reported at 2017-Nov-18 10:22 UTC. Time now 2017-Nov-18 15:42 UTC.
Position N 47°48' W 004°17'.

Length 16 m.

Type: Fishing. MMSI: 228126000.

Date/timePositionNaut miles runAvg speedWind from/ knotsBaromVisibWave heightAir tempDewpointWater temp
2017-Nov-18 10:22N 47°48' W 004°17'1 0.0
2017-Nov-17 13:28N 47°47' W 004°17'5 8.6
2017-Nov-17 12:56N 47°44' W 004°22'16 5.6
2017-Nov-17 10:08N 47°32' W 004°38'2 3.1
2017-Nov-17 09:35N 47°31' W 004°40'0 3.2
2017-Nov-17 09:26N 47°31' W 004°41'5 2.8
2017-Nov-17 07:33N 47°32' W 004°48'0 3.4
2017-Nov-17 07:29N 47°32' W 004°48'8 2.1
2017-Nov-17 03:29N 47°37' W 004°59'2 0.4
2017-Nov-16 23:12N 47°36' W 005°01'1 2.8
2017-Nov-16 22:58N 47°36' W 005°01'2 1.5
2017-Nov-16 21:52N 47°36' W 005°04'3 1.8
2017-Nov-16 20:11N 47°34' W 005°06'2 3.5
2017-Nov-16 19:43N 47°35' W 005°08'1 3.7
2017-Nov-16 19:20N 47°37' W 005°08'6 3.5
2017-Nov-16 17:42N 47°42' W 005°10'1 2.8
2017-Nov-16 17:12N 47°42' W 005°08'2 2.9
2017-Nov-16 16:35N 47°41' W 005°05'1 3.0
2017-Nov-16 16:16N 47°40' W 005°04'1 3.1
2017-Nov-16 16:00N 47°40' W 005°03'2 3.1
2017-Nov-16 15:30N 47°40' W 005°01'2 3.1
2017-Nov-16 14:53N 47°40' W 004°58'2 2.9
2017-Nov-16 14:22N 47°39' W 004°56'1 2.9
2017-Nov-16 13:53N 47°39' W 004°54'3 1.8
2017-Nov-16 12:21N 47°37' W 004°51'1 3.4
2017-Nov-16 12:00N 47°37' W 004°53'2 3.2
2017-Nov-16 11:30N 47°38' W 004°55'2 3.1
2017-Nov-16 10:53N 47°39' W 004°57'1 2.4
2017-Nov-16 10:18N 47°40' W 004°59'1 2.3
2017-Nov-16 09:51N 47°39' W 005°00'1 3.2
2017-Nov-16 09:28N 47°40' W 004°58'2 2.9
2017-Nov-16 08:51N 47°39' W 004°56'2 3.3
2017-Nov-16 08:13N 47°39' W 004°53'2 3.2
2017-Nov-16 07:44N 47°38' W 004°51'8 2.1
2017-Nov-16 03:56N 47°30' W 004°54'2 3.1
2017-Nov-16 03:23N 47°29' W 004°52'2 3.2
2017-Nov-16 02:55N 47°29' W 004°49'1 3.3
2017-Nov-16 02:28N 47°30' W 004°47'2 3.3
2017-Nov-16 02:00N 47°31' W 004°45'2 2.7
2017-Nov-16 01:23N 47°32' W 004°46'7 2.2
2017-Nov-15 22:10N 47°25' W 004°47'1 3.5
2017-Nov-15 22:00N 47°25' W 004°47'5 3.6
2017-Nov-15 20:41N 47°21' W 004°43'1 3.7
2017-Nov-15 20:25N 47°20' W 004°42'8 3.3
2017-Nov-15 18:07N 47°15' W 004°35'1 3.5
2017-Nov-15 17:53N 47°15' W 004°34'5 3.3
2017-Nov-15 16:22N 47°20' W 004°33'2 0.7
2017-Nov-15 13:06N 47°21' W 004°29'5 2.2
2017-Nov-15 10:44N 47°16' W 004°34'1 3.0
2017-Nov-15 10:30N 47°16' W 004°33'18 3.8
2017-Nov-15 05:38N 47°34' W 004°23'4 8.2
2017-Nov-15 05:08N 47°37' W 004°21'2 8.2
2017-Nov-15 04:56N 47°39' W 004°21'4 8.1
2017-Nov-15 04:30N 47°43' W 004°19'4 8.0
2017-Nov-15 04:00N 47°46' W 004°18'2 0.9
2017-Nov-15 02:19N 47°48' W 004°17'  
2017-Nov-10 15:50N 47°46' W 004°18'3 8.5
2017-Nov-10 15:30N 47°44' W 004°20'15 3.4
2017-Nov-10 11:00N 47°40' W 004°42'7 3.7
2017-Nov-10 09:09N 47°42' W 004°52'1 4.0
2017-Nov-10 09:00N 47°43' W 004°52'3 1.8
2017-Nov-10 07:29N 47°41' W 004°49'3 3.6
2017-Nov-10 06:38N 47°41' W 004°44'1 7.0
2017-Nov-10 06:29N 47°42' W 004°43'3 6.9
2017-Nov-10 06:01N 47°43' W 004°38'4 7.0
2017-Nov-10 05:29N 47°44' W 004°33'4 7.1
2017-Nov-10 04:58N 47°44' W 004°28'3 7.1
2017-Nov-10 04:31N 47°45' W 004°23'3 6.7
2017-Nov-10 03:59N 47°47' W 004°18'0 0.0
2017-Nov-09 14:03N 47°46' W 004°19'1 8.5
2017-Nov-09 13:56N 47°46' W 004°20'5 9.2
2017-Nov-09 13:26N 47°45' W 004°27'3 7.4
2017-Nov-09 12:58N 47°43' W 004°31'12 2.9
2017-Nov-09 08:58N 47°40' W 004°48'4 2.0
2017-Nov-09 07:04N 47°43' W 004°52'1 3.7
2017-Nov-09 06:56N 47°43' W 004°53'2 3.0
2017-Nov-09 06:26N 47°43' W 004°55'1 3.0
2017-Nov-09 06:00N 47°44' W 004°57'1 1.6
2017-Nov-09 05:20N 47°43' W 004°58'1 3.0
2017-Nov-09 05:00N 47°43' W 004°56'1 2.7
2017-Nov-09 04:29N 47°44' W 004°54'2 3.2
2017-Nov-09 03:58N 47°44' W 004°57'1 3.2
2017-Nov-09 03:30N 47°44' W 004°59'2 3.1
2017-Nov-09 03:00N 47°45' W 005°01'2 3.3
2017-Nov-09 02:30N 47°45' W 005°04'2 3.2
2017-Nov-09 02:00N 47°46' W 005°06'6 2.0
2017-Nov-08 22:58N 47°40' W 005°04'8 1.3
2017-Nov-08 16:53N 47°42' W 004°54'2 3.2
2017-Nov-08 16:19N 47°42' W 004°51'2 3.1
2017-Nov-08 15:50N 47°41' W 004°49'1 0.7
2017-Nov-08 14:58N 47°42' W 004°50'2 3.1
2017-Nov-08 14:21N 47°43' W 004°52'1 2.2
2017-Nov-08 13:55N 47°43' W 004°54'2 0.4
2017-Nov-08 10:28N 47°41' W 004°55'  

Dump ship's entire track history